sensor_id;sensor_type;location;lat;lon;timestamp;P1;durP1;ratioP1;P2;durP2;ratioP2
64986;SDS011;67903;52.108;9.358;2024-02-28T00:02:42;23.48;;;16.88;;
64986;SDS011;67903;52.108;9.358;2024-02-28T00:05:28;22.48;;;16.63;;
64986;SDS011;67903;52.108;9.358;2024-02-28T00:08:14;24.10;;;17.73;;
64986;SDS011;67903;52.108;9.358;2024-02-28T00:10:59;23.27;;;18.55;;
64986;SDS011;67903;52.108;9.358;2024-02-28T00:13:45;25.83;;;19.35;;
64986;SDS011;67903;52.108;9.358;2024-02-28T00:16:30;25.65;;;18.30;;
64986;SDS011;67903;52.108;9.358;2024-02-28T00:19:16;26.90;;;18.77;;
64986;SDS011;67903;52.108;9.358;2024-02-28T00:22:03;24.45;;;18.85;;
64986;SDS011;67903;52.108;9.358;2024-02-28T00:24:48;27.45;;;19.48;;
64986;SDS011;67903;52.108;9.358;2024-02-28T00:27:34;25.98;;;18.75;;
64986;SDS011;67903;52.108;9.358;2024-02-28T00:30:19;25.33;;;19.02;;
64986;SDS011;67903;52.108;9.358;2024-02-28T00:33:05;26.77;;;19.52;;
64986;SDS011;67903;52.108;9.358;2024-02-28T00:35:50;28.88;;;20.83;;
64986;SDS011;67903;52.108;9.358;2024-02-28T00:38:38;27.23;;;19.85;;
64986;SDS011;67903;52.108;9.358;2024-02-28T00:41:23;32.63;;;21.75;;
64986;SDS011;67903;52.108;9.358;2024-02-28T00:44:09;32.33;;;20.30;;
64986;SDS011;67903;52.108;9.358;2024-02-28T00:46:55;28.20;;;20.92;;
64986;SDS011;67903;52.108;9.358;2024-02-28T00:49:41;28.08;;;20.05;;
64986;SDS011;67903;52.108;9.358;2024-02-28T00:52:26;31.45;;;21.77;;
64986;SDS011;67903;52.108;9.358;2024-02-28T00:55:12;29.98;;;20.52;;
64986;SDS011;67903;52.108;9.358;2024-02-28T00:57:57;30.35;;;19.80;;
64986;SDS011;67903;52.108;9.358;2024-02-28T01:00:43;30.23;;;20.63;;
64986;SDS011;67903;52.108;9.358;2024-02-28T01:03:29;31.90;;;21.65;;
64986;SDS011;67903;52.108;9.358;2024-02-28T01:06:14;33.13;;;22.17;;
64986;SDS011;67903;52.108;9.358;2024-02-28T01:09:01;29.98;;;20.50;;
64986;SDS011;67903;52.108;9.358;2024-02-28T01:11:48;31.05;;;21.65;;
64986;SDS011;67903;52.108;9.358;2024-02-28T01:14:34;29.13;;;20.92;;
64986;SDS011;67903;52.108;9.358;2024-02-28T01:17:19;30.35;;;21.15;;
64986;SDS011;67903;52.108;9.358;2024-02-28T01:20:06;32.00;;;21.73;;
64986;SDS011;67903;52.108;9.358;2024-02-28T01:22:53;30.90;;;21.10;;
64986;SDS011;67903;52.108;9.358;2024-02-28T01:25:39;28.27;;;20.05;;
64986;SDS011;67903;52.108;9.358;2024-02-28T01:28:24;28.20;;;19.33;;
64986;SDS011;67903;52.108;9.358;2024-02-28T01:31:10;27.80;;;19.80;;
64986;SDS011;67903;52.108;9.358;2024-02-28T01:33:56;30.30;;;20.30;;
64986;SDS011;67903;52.108;9.358;2024-02-28T01:36:42;31.65;;;20.60;;
64986;SDS011;67903;52.108;9.358;2024-02-28T01:39:28;29.30;;;19.88;;
64986;SDS011;67903;52.108;9.358;2024-02-28T01:42:14;28.58;;;19.75;;
64986;SDS011;67903;52.108;9.358;2024-02-28T01:45:00;28.45;;;19.92;;
64986;SDS011;67903;52.108;9.358;2024-02-28T01:47:45;30.95;;;19.50;;
64986;SDS011;67903;52.108;9.358;2024-02-28T01:50:31;28.48;;;20.25;;
64986;SDS011;67903;52.108;9.358;2024-02-28T01:53:17;25.83;;;18.90;;
64986;SDS011;67903;52.108;9.358;2024-02-28T01:56:05;25.92;;;18.15;;
64986;SDS011;67903;52.108;9.358;2024-02-28T01:58:51;27.00;;;17.77;;
64986;SDS011;67903;52.108;9.358;2024-02-28T02:01:38;22.75;;;16.08;;
64986;SDS011;67903;52.108;9.358;2024-02-28T02:04:24;21.48;;;15.90;;
64986;SDS011;67903;52.108;9.358;2024-02-28T02:07:10;23.13;;;16.95;;
64986;SDS011;67903;52.108;9.358;2024-02-28T02:09:55;25.67;;;16.40;;
64986;SDS011;67903;52.108;9.358;2024-02-28T02:12:41;24.55;;;17.20;;
64986;SDS011;67903;52.108;9.358;2024-02-28T02:15:27;24.98;;;17.58;;
64986;SDS011;67903;52.108;9.358;2024-02-28T02:18:14;22.83;;;15.90;;
64986;SDS011;67903;52.108;9.358;2024-02-28T02:21:02;25.35;;;16.55;;
64986;SDS011;67903;52.108;9.358;2024-02-28T02:23:50;23.73;;;16.63;;
64986;SDS011;67903;52.108;9.358;2024-02-28T02:26:35;24.60;;;16.55;;
64986;SDS011;67903;52.108;9.358;2024-02-28T02:29:21;25.02;;;17.85;;
64986;SDS011;67903;52.108;9.358;2024-02-28T02:32:06;25.65;;;16.67;;
64986;SDS011;67903;52.108;9.358;2024-02-28T02:34:52;24.60;;;17.65;;
64986;SDS011;67903;52.108;9.358;2024-02-28T02:37:37;23.92;;;17.98;;
64986;SDS011;67903;52.108;9.358;2024-02-28T02:40:28;26.98;;;18.33;;
64986;SDS011;67903;52.108;9.358;2024-02-28T02:43:13;27.13;;;18.65;;
64986;SDS011;67903;52.108;9.358;2024-02-28T02:45:59;30.48;;;20.02;;
64986;SDS011;67903;52.108;9.358;2024-02-28T02:48:44;32.50;;;21.20;;
64986;SDS011;67903;52.108;9.358;2024-02-28T02:51:30;32.85;;;21.20;;
64986;SDS011;67903;52.108;9.358;2024-02-28T02:54:15;31.88;;;20.30;;
64986;SDS011;67903;52.108;9.358;2024-02-28T02:57:01;32.10;;;21.00;;
64986;SDS011;67903;52.108;9.358;2024-02-28T02:59:47;32.40;;;20.13;;
64986;SDS011;67903;52.108;9.358;2024-02-28T03:02:32;32.30;;;21.55;;
64986;SDS011;67903;52.108;9.358;2024-02-28T03:05:18;30.13;;;20.10;;
64986;SDS011;67903;52.108;9.358;2024-02-28T03:08:03;32.42;;;21.73;;
64986;SDS011;67903;52.108;9.358;2024-02-28T03:10:49;31.70;;;21.52;;
64986;SDS011;67903;52.108;9.358;2024-02-28T03:13:34;30.23;;;19.95;;
64986;SDS011;67903;52.108;9.358;2024-02-28T03:16:20;35.70;;;22.38;;
64986;SDS011;67903;52.108;9.358;2024-02-28T03:19:05;32.45;;;21.55;;
64986;SDS011;67903;52.108;9.358;2024-02-28T03:21:51;30.42;;;20.00;;
64986;SDS011;67903;52.108;9.358;2024-02-28T03:24:36;30.75;;;21.35;;
64986;SDS011;67903;52.108;9.358;2024-02-28T03:27:22;29.95;;;20.40;;
64986;SDS011;67903;52.108;9.358;2024-02-28T03:30:08;29.65;;;20.92;;
64986;SDS011;67903;52.108;9.358;2024-02-28T03:32:53;32.90;;;21.52;;
64986;SDS011;67903;52.108;9.358;2024-02-28T03:35:39;33.97;;;21.35;;
64986;SDS011;67903;52.108;9.358;2024-02-28T03:38:24;33.75;;;22.02;;
64986;SDS011;67903;52.108;9.358;2024-02-28T03:41:10;35.33;;;22.70;;
64986;SDS011;67903;52.108;9.358;2024-02-28T03:43:55;32.72;;;21.85;;
64986;SDS011;67903;52.108;9.358;2024-02-28T03:46:41;29.73;;;20.33;;
64986;SDS011;67903;52.108;9.358;2024-02-28T03:49:26;33.70;;;21.88;;
64986;SDS011;67903;52.108;9.358;2024-02-28T03:52:12;32.13;;;20.98;;
64986;SDS011;67903;52.108;9.358;2024-02-28T03:54:57;31.45;;;21.08;;
64986;SDS011;67903;52.108;9.358;2024-02-28T03:57:46;30.85;;;21.00;;
64986;SDS011;67903;52.108;9.358;2024-02-28T04:00:32;31.08;;;20.85;;
64986;SDS011;67903;52.108;9.358;2024-02-28T04:03:18;30.75;;;21.60;;
64986;SDS011;67903;52.108;9.358;2024-02-28T04:06:03;32.53;;;20.98;;
64986;SDS011;67903;52.108;9.358;2024-02-28T04:08:49;31.88;;;20.13;;
64986;SDS011;67903;52.108;9.358;2024-02-28T04:11:36;30.77;;;20.70;;
64986;SDS011;67903;52.108;9.358;2024-02-28T04:14:22;34.60;;;22.13;;
64986;SDS011;67903;52.108;9.358;2024-02-28T04:17:07;30.20;;;21.08;;
64986;SDS011;67903;52.108;9.358;2024-02-28T04:19:52;31.02;;;20.83;;
64986;SDS011;67903;52.108;9.358;2024-02-28T04:22:38;32.17;;;20.85;;
64986;SDS011;67903;52.108;9.358;2024-02-28T04:25:24;31.52;;;21.02;;
64986;SDS011;67903;52.108;9.358;2024-02-28T04:28:10;29.75;;;19.40;;
64986;SDS011;67903;52.108;9.358;2024-02-28T04:30:55;31.05;;;20.30;;
64986;SDS011;67903;52.108;9.358;2024-02-28T04:33:41;29.27;;;20.40;;
64986;SDS011;67903;52.108;9.358;2024-02-28T04:36:26;33.28;;;20.92;;
64986;SDS011;67903;52.108;9.358;2024-02-28T04:39:12;32.70;;;20.50;;
64986;SDS011;67903;52.108;9.358;2024-02-28T04:41:57;32.72;;;20.00;;
64986;SDS011;67903;52.108;9.358;2024-02-28T04:44:43;31.35;;;20.60;;
64986;SDS011;67903;52.108;9.358;2024-02-28T04:47:28;30.73;;;20.90;;
64986;SDS011;67903;52.108;9.358;2024-02-28T04:50:24;32.35;;;20.95;;
64986;SDS011;67903;52.108;9.358;2024-02-28T04:53:10;31.88;;;20.13;;
64986;SDS011;67903;52.108;9.358;2024-02-28T04:55:55;29.80;;;19.38;;
64986;SDS011;67903;52.108;9.358;2024-02-28T04:58:41;34.33;;;20.80;;
64986;SDS011;67903;52.108;9.358;2024-02-28T05:01:26;29.90;;;20.95;;
64986;SDS011;67903;52.108;9.358;2024-02-28T05:04:13;29.92;;;19.25;;
64986;SDS011;67903;52.108;9.358;2024-02-28T05:06:59;31.95;;;20.70;;
64986;SDS011;67903;52.108;9.358;2024-02-28T05:09:44;29.33;;;19.70;;
64986;SDS011;67903;52.108;9.358;2024-02-28T05:12:30;30.58;;;19.90;;
64986;SDS011;67903;52.108;9.358;2024-02-28T05:15:16;28.02;;;19.95;;
64986;SDS011;67903;52.108;9.358;2024-02-28T05:18:02;30.85;;;20.60;;
64986;SDS011;67903;52.108;9.358;2024-02-28T05:20:47;30.33;;;20.63;;
64986;SDS011;67903;52.108;9.358;2024-02-28T05:23:33;35.88;;;21.80;;
64986;SDS011;67903;52.108;9.358;2024-02-28T05:26:18;33.88;;;20.67;;
64986;SDS011;67903;52.108;9.358;2024-02-28T05:29:04;31.17;;;21.08;;
64986;SDS011;67903;52.108;9.358;2024-02-28T05:31:50;32.17;;;20.05;;
64986;SDS011;67903;52.108;9.358;2024-02-28T05:34:36;30.02;;;20.17;;
64986;SDS011;67903;52.108;9.358;2024-02-28T05:37:21;32.10;;;20.77;;
64986;SDS011;67903;52.108;9.358;2024-02-28T05:40:07;30.83;;;20.75;;
64986;SDS011;67903;52.108;9.358;2024-02-28T05:42:54;29.85;;;19.67;;
64986;SDS011;67903;52.108;9.358;2024-02-28T05:45:39;28.90;;;20.00;;
64986;SDS011;67903;52.108;9.358;2024-02-28T05:48:25;28.98;;;19.52;;
64986;SDS011;67903;52.108;9.358;2024-02-28T05:51:11;32.78;;;20.10;;
64986;SDS011;67903;52.108;9.358;2024-02-28T05:53:56;28.75;;;19.52;;
64986;SDS011;67903;52.108;9.358;2024-02-28T05:56:42;35.78;;;19.38;;
64986;SDS011;67903;52.108;9.358;2024-02-28T05:59:28;28.67;;;19.17;;
64986;SDS011;67903;52.108;9.358;2024-02-28T06:02:13;32.92;;;20.23;;
64986;SDS011;67903;52.108;9.358;2024-02-28T06:04:59;33.67;;;20.30;;
64986;SDS011;67903;52.108;9.358;2024-02-28T06:07:44;33.58;;;20.95;;
64986;SDS011;67903;52.108;9.358;2024-02-28T06:10:29;42.08;;;21.80;;
64986;SDS011;67903;52.108;9.358;2024-02-28T06:13:15;33.35;;;21.33;;
64986;SDS011;67903;52.108;9.358;2024-02-28T06:16:00;31.05;;;20.20;;
64986;SDS011;67903;52.108;9.358;2024-02-28T06:18:47;32.42;;;21.20;;
64986;SDS011;67903;52.108;9.358;2024-02-28T06:21:33;39.10;;;24.35;;
64986;SDS011;67903;52.108;9.358;2024-02-28T06:24:19;33.20;;;21.73;;
64986;SDS011;67903;52.108;9.358;2024-02-28T06:27:05;38.28;;;23.67;;
64986;SDS011;67903;52.108;9.358;2024-02-28T06:29:50;39.13;;;24.27;;
64986;SDS011;67903;52.108;9.358;2024-02-28T06:32:36;31.95;;;20.85;;
64986;SDS011;67903;52.108;9.358;2024-02-28T06:35:21;36.30;;;23.35;;
64986;SDS011;67903;52.108;9.358;2024-02-28T06:38:07;33.33;;;21.58;;
64986;SDS011;67903;52.108;9.358;2024-02-28T06:40:52;38.83;;;22.02;;
64986;SDS011;67903;52.108;9.358;2024-02-28T06:43:38;38.42;;;22.55;;
64986;SDS011;67903;52.108;9.358;2024-02-28T06:46:23;37.97;;;24.58;;
64986;SDS011;67903;52.108;9.358;2024-02-28T06:49:09;37.65;;;22.80;;
64986;SDS011;67903;52.108;9.358;2024-02-28T06:51:55;35.47;;;22.65;;
64986;SDS011;67903;52.108;9.358;2024-02-28T06:54:44;37.33;;;21.85;;
64986;SDS011;67903;52.108;9.358;2024-02-28T06:57:29;38.08;;;23.08;;
64986;SDS011;67903;52.108;9.358;2024-02-28T07:00:15;36.35;;;21.23;;
64986;SDS011;67903;52.108;9.358;2024-02-28T07:03:01;37.03;;;23.00;;
64986;SDS011;67903;52.108;9.358;2024-02-28T07:05:47;35.42;;;21.95;;
64986;SDS011;67903;52.108;9.358;2024-02-28T07:08:32;31.45;;;21.15;;
64986;SDS011;67903;52.108;9.358;2024-02-28T07:11:18;36.42;;;22.13;;
64986;SDS011;67903;52.108;9.358;2024-02-28T07:14:03;37.10;;;21.73;;
64986;SDS011;67903;52.108;9.358;2024-02-28T07:16:49;35.75;;;22.63;;
64986;SDS011;67903;52.108;9.358;2024-02-28T07:19:36;39.22;;;23.77;;
64986;SDS011;67903;52.108;9.358;2024-02-28T07:22:22;36.05;;;22.88;;
64986;SDS011;67903;52.108;9.358;2024-02-28T07:25:07;39.38;;;23.83;;
64986;SDS011;67903;52.108;9.358;2024-02-28T07:27:53;35.55;;;21.98;;
64986;SDS011;67903;52.108;9.358;2024-02-28T07:30:39;35.78;;;22.70;;
64986;SDS011;67903;52.108;9.358;2024-02-28T07:33:25;36.42;;;21.95;;
64986;SDS011;67903;52.108;9.358;2024-02-28T07:36:10;36.20;;;22.85;;
64986;SDS011;67903;52.108;9.358;2024-02-28T07:38:56;36.33;;;23.00;;
64986;SDS011;67903;52.108;9.358;2024-02-28T07:41:42;35.13;;;22.70;;
64986;SDS011;67903;52.108;9.358;2024-02-28T07:44:27;36.33;;;24.20;;
64986;SDS011;67903;52.108;9.358;2024-02-28T07:47:15;39.55;;;24.23;;
64986;SDS011;67903;52.108;9.358;2024-02-28T07:50:01;37.20;;;22.95;;
64986;SDS011;67903;52.108;9.358;2024-02-28T07:52:47;40.33;;;23.70;;
64986;SDS011;67903;52.108;9.358;2024-02-28T07:55:33;35.55;;;22.90;;
64986;SDS011;67903;52.108;9.358;2024-02-28T07:58:18;39.85;;;23.38;;
64986;SDS011;67903;52.108;9.358;2024-02-28T08:01:04;38.88;;;23.30;;
64986;SDS011;67903;52.108;9.358;2024-02-28T08:03:49;35.33;;;22.98;;
64986;SDS011;67903;52.108;9.358;2024-02-28T08:06:35;38.83;;;24.60;;
64986;SDS011;67903;52.108;9.358;2024-02-28T08:09:21;43.05;;;24.42;;
64986;SDS011;67903;52.108;9.358;2024-02-28T08:12:07;39.95;;;24.38;;
64986;SDS011;67903;52.108;9.358;2024-02-28T08:14:52;40.60;;;23.27;;
64986;SDS011;67903;52.108;9.358;2024-02-28T08:17:38;39.67;;;25.80;;
64986;SDS011;67903;52.108;9.358;2024-02-28T08:20:24;39.20;;;24.48;;
64986;SDS011;67903;52.108;9.358;2024-02-28T08:23:09;39.70;;;24.00;;
64986;SDS011;67903;52.108;9.358;2024-02-28T08:25:55;39.03;;;24.25;;
64986;SDS011;67903;52.108;9.358;2024-02-28T08:28:40;43.35;;;26.00;;
64986;SDS011;67903;52.108;9.358;2024-02-28T08:31:26;37.55;;;24.60;;
64986;SDS011;67903;52.108;9.358;2024-02-28T08:34:11;35.65;;;23.20;;
64986;SDS011;67903;52.108;9.358;2024-02-28T08:36:57;40.88;;;25.58;;
64986;SDS011;67903;52.108;9.358;2024-02-28T08:39:43;36.95;;;23.40;;
64986;SDS011;67903;52.108;9.358;2024-02-28T08:42:28;41.40;;;24.70;;
64986;SDS011;67903;52.108;9.358;2024-02-28T08:45:14;41.13;;;25.00;;
64986;SDS011;67903;52.108;9.358;2024-02-28T08:47:59;39.45;;;25.35;;
64986;SDS011;67903;52.108;9.358;2024-02-28T08:50:46;39.53;;;24.27;;
64986;SDS011;67903;52.108;9.358;2024-02-28T08:53:32;38.22;;;23.88;;
64986;SDS011;67903;52.108;9.358;2024-02-28T08:56:18;35.35;;;23.90;;
64986;SDS011;67903;52.108;9.358;2024-02-28T08:59:03;37.63;;;24.10;;
64986;SDS011;67903;52.108;9.358;2024-02-28T09:01:49;41.85;;;24.80;;
64986;SDS011;67903;52.108;9.358;2024-02-28T09:04:35;38.78;;;24.88;;
64986;SDS011;67903;52.108;9.358;2024-02-28T09:07:20;42.47;;;24.48;;
64986;SDS011;67903;52.108;9.358;2024-02-28T09:10:06;37.95;;;24.20;;
64986;SDS011;67903;52.108;9.358;2024-02-28T09:12:52;37.33;;;23.90;;
64986;SDS011;67903;52.108;9.358;2024-02-28T09:15:38;36.65;;;23.45;;
64986;SDS011;67903;52.108;9.358;2024-02-28T09:18:23;40.65;;;25.38;;
64986;SDS011;67903;52.108;9.358;2024-02-28T09:21:09;37.88;;;24.23;;
64986;SDS011;67903;52.108;9.358;2024-02-28T09:23:55;36.95;;;25.10;;
64986;SDS011;67903;52.108;9.358;2024-02-28T09:26:40;39.55;;;24.65;;
64986;SDS011;67903;52.108;9.358;2024-02-28T09:29:25;39.60;;;24.50;;
64986;SDS011;67903;52.108;9.358;2024-02-28T09:32:11;41.53;;;25.42;;
64986;SDS011;67903;52.108;9.358;2024-02-28T09:34:57;38.47;;;24.70;;
64986;SDS011;67903;52.108;9.358;2024-02-28T09:37:42;42.15;;;25.13;;
64986;SDS011;67903;52.108;9.358;2024-02-28T09:40:28;38.92;;;24.00;;
64986;SDS011;67903;52.108;9.358;2024-02-28T09:43:24;39.53;;;24.73;;
64986;SDS011;67903;52.108;9.358;2024-02-28T09:46:25;36.03;;;23.23;;
64986;SDS011;67903;52.108;9.358;2024-02-28T09:49:10;39.65;;;23.92;;
64986;SDS011;67903;52.108;9.358;2024-02-28T09:51:57;38.58;;;24.98;;
64986;SDS011;67903;52.108;9.358;2024-02-28T09:54:44;39.42;;;23.77;;
64986;SDS011;67903;52.108;9.358;2024-02-28T09:57:29;40.25;;;25.35;;
64986;SDS011;67903;52.108;9.358;2024-02-28T10:00:19;40.15;;;25.63;;
64986;SDS011;67903;52.108;9.358;2024-02-28T10:03:05;40.25;;;24.27;;
64986;SDS011;67903;52.108;9.358;2024-02-28T10:05:52;42.03;;;25.55;;
64986;SDS011;67903;52.108;9.358;2024-02-28T10:08:37;40.38;;;23.55;;
64986;SDS011;67903;52.108;9.358;2024-02-28T10:11:23;39.55;;;22.70;;
64986;SDS011;67903;52.108;9.358;2024-02-28T10:14:09;39.55;;;23.63;;
64986;SDS011;67903;52.108;9.358;2024-02-28T10:16:55;40.40;;;23.52;;
64986;SDS011;67903;52.108;9.358;2024-02-28T10:19:40;43.53;;;25.35;;
64986;SDS011;67903;52.108;9.358;2024-02-28T10:22:26;42.75;;;24.52;;
64986;SDS011;67903;52.108;9.358;2024-02-28T10:25:11;42.20;;;24.88;;
64986;SDS011;67903;52.108;9.358;2024-02-28T10:28:00;44.72;;;25.77;;
64986;SDS011;67903;52.108;9.358;2024-02-28T10:30:46;45.88;;;26.10;;
64986;SDS011;67903;52.108;9.358;2024-02-28T10:33:32;45.88;;;25.13;;
64986;SDS011;67903;52.108;9.358;2024-02-28T10:36:18;42.70;;;24.25;;
64986;SDS011;67903;52.108;9.358;2024-02-28T10:39:04;41.42;;;24.70;;
64986;SDS011;67903;52.108;9.358;2024-02-28T10:41:51;39.72;;;23.90;;
64986;SDS011;67903;52.108;9.358;2024-02-28T10:44:38;41.03;;;24.35;;
64986;SDS011;67903;52.108;9.358;2024-02-28T10:47:26;40.15;;;24.13;;
64986;SDS011;67903;52.108;9.358;2024-02-28T10:50:13;42.88;;;24.00;;
64986;SDS011;67903;52.108;9.358;2024-02-28T10:53:01;40.58;;;24.35;;
64986;SDS011;67903;52.108;9.358;2024-02-28T10:55:48;41.63;;;23.92;;
64986;SDS011;67903;52.108;9.358;2024-02-28T10:58:39;39.55;;;23.92;;
64986;SDS011;67903;52.108;9.358;2024-02-28T11:01:42;44.50;;;24.67;;
64986;SDS011;67903;52.108;9.358;2024-02-28T11:04:29;43.42;;;24.60;;
64986;SDS011;67903;52.108;9.358;2024-02-28T11:07:19;42.58;;;25.27;;
64986;SDS011;67903;52.108;9.358;2024-02-28T11:10:06;42.28;;;24.63;;
64986;SDS011;67903;52.108;9.358;2024-02-28T11:12:55;42.55;;;24.13;;
64986;SDS011;67903;52.108;9.358;2024-02-28T11:15:40;39.60;;;23.13;;
64986;SDS011;67903;52.108;9.358;2024-02-28T11:18:26;42.65;;;24.52;;
64986;SDS011;67903;52.108;9.358;2024-02-28T11:21:15;44.83;;;25.38;;
64986;SDS011;67903;52.108;9.358;2024-02-28T11:24:01;40.08;;;25.17;;
64986;SDS011;67903;52.108;9.358;2024-02-28T11:26:46;43.15;;;24.95;;
64986;SDS011;67903;52.108;9.358;2024-02-28T11:29:34;40.22;;;24.17;;
64986;SDS011;67903;52.108;9.358;2024-02-28T11:32:19;38.97;;;24.08;;
64986;SDS011;67903;52.108;9.358;2024-02-28T11:35:05;39.97;;;24.45;;
64986;SDS011;67903;52.108;9.358;2024-02-28T11:37:51;42.42;;;24.15;;
64986;SDS011;67903;52.108;9.358;2024-02-28T11:40:38;43.53;;;25.20;;
64986;SDS011;67903;52.108;9.358;2024-02-28T11:43:32;40.00;;;24.83;;
64986;SDS011;67903;52.108;9.358;2024-02-28T11:46:35;37.63;;;24.52;;
64986;SDS011;67903;52.108;9.358;2024-02-28T11:49:21;39.22;;;24.30;;
64986;SDS011;67903;52.108;9.358;2024-02-28T11:52:07;37.60;;;23.17;;
64986;SDS011;67903;52.108;9.358;2024-02-28T11:54:52;37.35;;;23.10;;
64986;SDS011;67903;52.108;9.358;2024-02-28T11:57:39;37.78;;;22.27;;
64986;SDS011;67903;52.108;9.358;2024-02-28T12:00:25;34.10;;;22.17;;
64986;SDS011;67903;52.108;9.358;2024-02-28T12:03:11;34.53;;;21.95;;
64986;SDS011;67903;52.108;9.358;2024-02-28T12:05:56;33.35;;;21.48;;
64986;SDS011;67903;52.108;9.358;2024-02-28T12:08:42;36.58;;;22.52;;
64986;SDS011;67903;52.108;9.358;2024-02-28T12:11:29;34.75;;;21.33;;
64986;SDS011;67903;52.108;9.358;2024-02-28T12:14:15;34.97;;;23.05;;
64986;SDS011;67903;52.108;9.358;2024-02-28T12:17:01;36.42;;;22.77;;
64986;SDS011;67903;52.108;9.358;2024-02-28T12:19:48;32.75;;;22.05;;
64986;SDS011;67903;52.108;9.358;2024-02-28T12:22:37;36.72;;;22.65;;
64986;SDS011;67903;52.108;9.358;2024-02-28T12:25:23;43.42;;;24.83;;
64986;SDS011;67903;52.108;9.358;2024-02-28T12:28:08;39.03;;;23.75;;
64986;SDS011;67903;52.108;9.358;2024-02-28T12:30:55;37.65;;;23.52;;
64986;SDS011;67903;52.108;9.358;2024-02-28T12:33:41;36.38;;;23.40;;
64986;SDS011;67903;52.108;9.358;2024-02-28T12:36:27;37.75;;;23.13;;
64986;SDS011;67903;52.108;9.358;2024-02-28T12:39:13;37.67;;;21.70;;
64986;SDS011;67903;52.108;9.358;2024-02-28T12:41:58;36.92;;;22.90;;
64986;SDS011;67903;52.108;9.358;2024-02-28T12:44:44;36.78;;;22.48;;
64986;SDS011;67903;52.108;9.358;2024-02-28T12:47:32;36.83;;;23.00;;
64986;SDS011;67903;52.108;9.358;2024-02-28T12:50:17;35.40;;;22.58;;
64986;SDS011;67903;52.108;9.358;2024-02-28T12:53:03;35.80;;;22.35;;
64986;SDS011;67903;52.108;9.358;2024-02-28T12:55:48;38.70;;;23.60;;
64986;SDS011;67903;52.108;9.358;2024-02-28T12:58:34;35.28;;;22.33;;
64986;SDS011;67903;52.108;9.358;2024-02-28T13:01:19;37.35;;;24.08;;
64986;SDS011;67903;52.108;9.358;2024-02-28T13:04:05;36.60;;;23.40;;
64986;SDS011;67903;52.108;9.358;2024-02-28T13:06:50;38.95;;;24.00;;
64986;SDS011;67903;52.108;9.358;2024-02-28T13:09:38;36.33;;;22.23;;
64986;SDS011;67903;52.108;9.358;2024-02-28T13:12:24;32.03;;;21.08;;
64986;SDS011;67903;52.108;9.358;2024-02-28T13:15:09;34.55;;;21.95;;
64986;SDS011;67903;52.108;9.358;2024-02-28T13:17:55;32.70;;;22.33;;
64986;SDS011;67903;52.108;9.358;2024-02-28T13:20:40;32.63;;;21.10;;
64986;SDS011;67903;52.108;9.358;2024-02-28T13:23:26;35.40;;;21.52;;
64986;SDS011;67903;52.108;9.358;2024-02-28T13:26:11;31.67;;;21.02;;
64986;SDS011;67903;52.108;9.358;2024-02-28T13:29:04;32.22;;;21.23;;
64986;SDS011;67903;52.108;9.358;2024-02-28T13:31:49;32.60;;;21.02;;
64986;SDS011;67903;52.108;9.358;2024-02-28T13:34:34;31.50;;;20.80;;
64986;SDS011;67903;52.108;9.358;2024-02-28T13:37:20;31.45;;;21.95;;
64986;SDS011;67903;52.108;9.358;2024-02-28T13:40:06;31.77;;;20.67;;
64986;SDS011;67903;52.108;9.358;2024-02-28T13:42:55;29.75;;;20.27;;
64986;SDS011;67903;52.108;9.358;2024-02-28T13:45:41;28.48;;;19.98;;
64986;SDS011;67903;52.108;9.358;2024-02-28T13:48:31;31.92;;;21.58;;
64986;SDS011;67903;52.108;9.358;2024-02-28T13:51:18;31.70;;;19.98;;
64986;SDS011;67903;52.108;9.358;2024-02-28T13:54:04;32.63;;;21.23;;
64986;SDS011;67903;52.108;9.358;2024-02-28T13:56:50;31.30;;;21.40;;
64986;SDS011;67903;52.108;9.358;2024-02-28T13:59:35;33.28;;;21.85;;
64986;SDS011;67903;52.108;9.358;2024-02-28T14:02:21;31.15;;;20.52;;
64986;SDS011;67903;52.108;9.358;2024-02-28T14:05:10;34.47;;;22.88;;
64986;SDS011;67903;52.108;9.358;2024-02-28T14:07:56;33.55;;;23.25;;
64986;SDS011;67903;52.108;9.358;2024-02-28T14:10:45;32.17;;;22.17;;
64986;SDS011;67903;52.108;9.358;2024-02-28T14:13:30;34.20;;;21.85;;
64986;SDS011;67903;52.108;9.358;2024-02-28T14:16:16;34.28;;;22.00;;
64986;SDS011;67903;52.108;9.358;2024-02-28T14:19:04;32.45;;;21.73;;
64986;SDS011;67903;52.108;9.358;2024-02-28T14:21:49;30.23;;;21.30;;
64986;SDS011;67903;52.108;9.358;2024-02-28T14:24:35;31.77;;;21.20;;
64986;SDS011;67903;52.108;9.358;2024-02-28T14:27:23;30.77;;;20.73;;
64986;SDS011;67903;52.108;9.358;2024-02-28T14:30:10;30.90;;;21.55;;
64986;SDS011;67903;52.108;9.358;2024-02-28T14:32:56;30.70;;;21.08;;
64986;SDS011;67903;52.108;9.358;2024-02-28T14:35:41;29.88;;;21.25;;
64986;SDS011;67903;52.108;9.358;2024-02-28T14:38:27;29.23;;;20.20;;
64986;SDS011;67903;52.108;9.358;2024-02-28T14:41:12;28.20;;;19.63;;
64986;SDS011;67903;52.108;9.358;2024-02-28T14:43:58;27.80;;;19.05;;
64986;SDS011;67903;52.108;9.358;2024-02-28T14:46:43;24.52;;;17.88;;
64986;SDS011;67903;52.108;9.358;2024-02-28T14:49:29;29.42;;;20.08;;
64986;SDS011;67903;52.108;9.358;2024-02-28T14:52:14;29.25;;;21.42;;
64986;SDS011;67903;52.108;9.358;2024-02-28T14:55:00;29.98;;;21.08;;
64986;SDS011;67903;52.108;9.358;2024-02-28T14:57:46;30.80;;;20.60;;
64986;SDS011;67903;52.108;9.358;2024-02-28T15:00:32;28.88;;;20.33;;
64986;SDS011;67903;52.108;9.358;2024-02-28T15:03:18;32.40;;;21.00;;
64986;SDS011;67903;52.108;9.358;2024-02-28T15:06:05;30.58;;;21.38;;
64986;SDS011;67903;52.108;9.358;2024-02-28T15:08:51;32.97;;;23.35;;
64986;SDS011;67903;52.108;9.358;2024-02-28T15:11:36;30.70;;;22.30;;
64986;SDS011;67903;52.108;9.358;2024-02-28T15:14:23;32.40;;;22.73;;
64986;SDS011;67903;52.108;9.358;2024-02-28T15:17:09;34.55;;;22.15;;
64986;SDS011;67903;52.108;9.358;2024-02-28T15:19:54;32.20;;;22.85;;
64986;SDS011;67903;52.108;9.358;2024-02-28T15:22:40;29.40;;;20.50;;
64986;SDS011;67903;52.108;9.358;2024-02-28T15:25:25;32.08;;;21.85;;
64986;SDS011;67903;52.108;9.358;2024-02-28T15:28:11;33.33;;;22.33;;
64986;SDS011;67903;52.108;9.358;2024-02-28T15:30:56;32.88;;;21.58;;
64986;SDS011;67903;52.108;9.358;2024-02-28T15:33:43;31.35;;;21.52;;
64986;SDS011;67903;52.108;9.358;2024-02-28T15:36:28;33.20;;;21.15;;
64986;SDS011;67903;52.108;9.358;2024-02-28T15:39:14;32.30;;;22.15;;
64986;SDS011;67903;52.108;9.358;2024-02-28T15:42:00;33.38;;;21.42;;
64986;SDS011;67903;52.108;9.358;2024-02-28T15:44:45;30.40;;;20.05;;
64986;SDS011;67903;52.108;9.358;2024-02-28T15:47:31;29.88;;;20.17;;
64986;SDS011;67903;52.108;9.358;2024-02-28T15:50:18;33.58;;;21.98;;
64986;SDS011;67903;52.108;9.358;2024-02-28T15:53:04;39.20;;;23.27;;
64986;SDS011;67903;52.108;9.358;2024-02-28T15:55:50;34.78;;;23.25;;
64986;SDS011;67903;52.108;9.358;2024-02-28T15:58:35;39.10;;;24.60;;
64986;SDS011;67903;52.108;9.358;2024-02-28T16:01:21;39.42;;;24.40;;
64986;SDS011;67903;52.108;9.358;2024-02-28T16:04:07;36.45;;;23.48;;
64986;SDS011;67903;52.108;9.358;2024-02-28T16:06:53;40.10;;;24.77;;
64986;SDS011;67903;52.108;9.358;2024-02-28T16:09:38;38.20;;;24.58;;
64986;SDS011;67903;52.108;9.358;2024-02-28T16:12:25;41.45;;;24.73;;